Tiempo atmosférico en la estación meteorológica de Bera, Navarra (78 m.)



Fecha
DESCASC
Temp. máxima en grados centígrados (hora)
DESCASC
Temp. mínima en grados centígrados (hora)
DESCASC
Temp. media en grados centígrados
DESCASC
Racha de viento máxima en m/sg (hora)
DESCASC
Velocidad máxima media en intervalos de 10 minutos(hora)
DESCASC
Precipitaciones diarias en mm
DESCASC
Precipitaciones de 00:00 a 06:00 en mm
DESCASC
Precipitaciones de 06:00 a 12:00 en mm
DESCASC
Precipitaciones de 12:00 a 18:00 en mm
DESCASC
Precipitaciones de 18:00 a 24:00 en mm
DESCASC
02-07-2020 19.7 (00:00) 16.6 (06:30) 18.2 5.28 (12:50) 2.22 (14:10) 12.2 10.8 1.4 0 0
01-07-2020 23.5 (17:20) 16.3 (05:20) 19.9 4.72 (18:20) 2.22 (16:30) 1.4 0 0 0 1.4
30-06-2020 27.3 (16:20) 13.7 (00:00) 20.5 7.22 (18:30) 3.89 (18:30) 0 0 0 0 0
29-06-2020 22 (16:40) 15 (00:00) 18.5 5 (16:00) 2.5 (13:20) 0.8 0.2 0.6 0 0
28-06-2020 26.1 (17:50) 17.9 (00:00) 22 4.17 (14:10) 2.22 (20:30) 1.2 1 0.2 0 0
27-06-2020 27.5 (16:30) 16.4 (00:00) 21.9 6.39 (16:40) 3.06 (14:30) 0.2 0.2 0 0 0
26-06-2020 21.4 (12:40) 18.1 (00:00) 19.8 3.61 (13:10) 1.67 (13:10) 0.4 0.2 0 0.2 0
25-06-2020 26.2 (15:20) 16.6 (00:00) 21.4 7.5 (12:00) 3.61 (11:40) 4.8 0 0 0 4.8
24-06-2020 32.9 (13:20) 15.9 (00:00) 24.4 8.61 (20:10) 3.33 (20:50) 0 0 0 0 0
23-06-2020 31.7 (16:40) 13.4 (00:00) 22.6 5.28 (17:00) 2.5 (13:50) 0 0 0 0 0
22-06-2020 25.7 (16:00) 15.5 (00:00) 20.6 6.67 (17:10) 3.06 (17:10) 0 0 0 0 0
21-06-2020 26.2 (14:10) 12.2 (00:00) 19.2 7.22 (16:50) 3.06 (16:20) 0 0 0 0 0
20-06-2020 24.2 (15:00) 14.3 (00:00) 19.3 6.67 (15:30) 3.33 (17:40) 0 0 0 0 0
19-06-2020 22 (14:50) 10.7 (00:00) 16.3 6.11 (15:00) 2.78 (14:40) 0 0 0 0 0
18-06-2020 20 (13:30) 11.5 (00:00) 15.8 5.56 (16:20) 2.78 (17:50) 3.2 1.4 1.8 0 0
17-06-2020 19.9 (13:40) 12 (00:00) 15.9 7.22 (16:00) 3.33 (17:00) 0 0 0 0 0
16-06-2020 22.2 (13:20) 12.4 (00:00) 17.3 6.39 (14:10) 2.78 (14:10) 2.4 0 0 1.8 0.6
15-06-2020 21.9 (16:30) 11.2 (00:00) 16.5 5.56 (15:30) 2.5 (15:30) 0 0 0 0 0
14-06-2020 23.8 (13:50) 13.1 (00:00) 18.4 7.5 (17:40) 3.89 (16:20) 0 0 0 0 0
13-06-2020 22 (16:00) 9.7 (00:00) 15.8 6.67 (16:00) 3.33 (16:10) 2.2 0 0 2.2 0
12-06-2020 21 (15:00) 7.6 (00:00) 14.3 8.89 (14:00) 4.44 (08:20) 8 0.2 0 0 7.8
11-06-2020 19.7 (13:50) 11.6 (00:00) 15.7 10.28 (15:00) 4.17 (15:00) 20.2 0.2 0.2 7.2 12.6
10-06-2020 17.3 (18:40) 12.7 (00:00) 15 2.22 (15:20) 0.83 (11:30) 5.6 0 4 1.6 0
09-06-2020 19.9 (17:20) 11.6 (00:00) 15.8 8.89 (17:30) 3.61 (16:30) 1.6 0 0.6 0 1
08-06-2020 16.6 (19:00) 11.3 (06:00) 14 7.5 (17:10) 3.33 (17:00) 47.8 12.4 7.8 9.8 17.8
07-06-2020 17.8 (15:20) 12.1 (00:00) 14.9 6.11 (19:30) 2.78 (19:30) 9.4 1.4 6.8 0 1.2
06-06-2020 21.2 (13:50) 15.2 (00:00) 18.2 5.83 (14:30) 2.22 (12:20) 3.6 0 0 0 3.6
05-06-2020 19.2 (15:40) 13.9 (00:00) 16.6 8.61 (06:10) 3.06 (06:10) 1.8 1.8 0 0 0
04-06-2020 17.6 (00:00) 14.2 (00:00) 15.9 7.78 (23:00) 3.06 (22:30) 47.8 4.2 8 21.6 14
03-06-2020 21.8 (11:00) 17.6 (00:00) 19.7 5.56 (22:50) 2.5 (22:30) 9.4 0 9.4 0 0

Gráficas

Temp. máximas Temp. mínimas Temp. medias Precipitaciones Rachas de viento máximas Velocidades máximas media en intervalos de 10 minutos

Datos horarios

Fecha y hora oficial Temperatura (ºC) Velocidad del viento (km/h) Dirección del viento Racha (km/h) Dirección de racha Precipitación (mm) Presión (hPa) Tendencia (hPa) Humedad (%)
2020-07-02 23:00:00 16.8 0 Calma 2 Noroeste 0 -- -- 92
2020-07-02 22:00:00 17.2 0 Calma 3 Este 0 -- -- 91
2020-07-02 21:00:00 17.8 3 Este 9 Sudoeste 0 -- -- 86
2020-07-02 20:00:00 18.3 4 Oeste 12 Oeste 0 -- -- 82
2020-07-02 19:00:00 18.6 4 Sudoeste 9 Sudoeste 0 -- -- 81
2020-07-02 18:00:00 17.8 0 Calma 15 Noroeste 0 -- -- 85
2020-07-02 17:00:00 18.3 6 Noroeste 15 Noroeste 0 -- -- 84
2020-07-02 16:00:00 17.9 6 Oeste 13 Oeste 0 -- -- 86
2020-07-02 15:00:00 17.8 4 Oeste 19 Noroeste 0 -- -- 86
2020-07-02 14:00:00 17.9 7 Noroeste 17 Noroeste 0 -- -- 89
2020-07-02 13:00:00 18.6 6 Norte 19 Noroeste 0 -- -- 87
2020-07-02 12:00:00 18 4 Norte 9 Norte 0.2 -- -- 92
2020-07-02 11:00:00 17.5 0 Calma 7 Sudoeste 0 -- -- 94
2020-07-02 10:00:00 17.2 0 Calma 6 Sur 0.6 -- -- 93
2020-07-02 09:00:00 16.9 0 Calma 2 Este 0.4 -- -- 95
2020-07-02 08:00:00 16.8 0 Calma 2 Sur 0 -- -- 96
2020-07-02 07:00:00 16.7 0 Calma 3 Sudeste 0.2 -- -- 96
2020-07-02 06:00:00 16.7 0 Calma 5 Oeste 0 -- -- 95
2020-07-02 05:00:00 17 3 Norte 13 Noroeste 0.6 -- -- 95
2020-07-02 04:00:00 17.4 0 Calma 6 Sudoeste 0.4 -- -- 95
2020-07-02 03:00:00 17.8 3 Sudoeste 7 Oeste 0.4 -- -- 94
2020-07-02 02:00:00 18.4 0 Calma 12 Norte 2 -- -- 93
2020-07-02 01:00:00 19.1 0 Calma 3 Sudoeste 7.4 -- -- 94
2020-07-02 00:00:00 19.7 0 Calma 4 Norte 1.4 -- -- 91
2020-07-01 23:00:00 19.9 3 Sudeste 5 Sudeste 0 -- -- 87
2020-07-01 22:00:00 20.5 0 Calma 6 Este 0 -- -- 84
2020-07-01 21:00:00 21.2 2 Noroeste 13 Noroeste 0 -- -- 79
2020-07-01 20:00:00 21.6 4 Norte 13 Noroeste 0 -- -- 77
2020-07-01 19:00:00 21.9 4 Nordeste 17 Noroeste 0 -- -- 76
2020-07-01 18:00:00 23 5 Nordeste 13 Noroeste 0 -- -- 71
2020-07-01 17:00:00 23.4 6 Noroeste 15 Noroeste 0 -- -- 66
2020-07-01 16:00:00 23.4 4 Norte 13 Oeste 0 -- -- 68
2020-07-01 15:00:00 22.6 4 Norte 11 Oeste 0 -- -- 75
2020-07-01 14:00:00 21.7 4 Oeste 14 Oeste 0 -- -- 78
2020-07-01 13:00:00 21.9 5 Noroeste 13 Noroeste 0 -- -- 76
2020-07-01 12:00:00 22.9 4 Este 8 Este 0 -- -- 75
2020-07-01 11:00:00 20.8 0 Calma 5 Nordeste 0 -- -- 81
2020-07-01 10:00:00 19 0 Calma 3 Este 0 -- -- 91
2020-07-01 09:00:00 18.2 0 Calma 2 Sur 0 -- -- 93
2020-07-01 08:00:00 17.6 0 Calma 2 Nordeste 0 -- -- 95
2020-07-01 07:00:00 17 0 Calma 2 Sudeste 0 -- -- 95
2020-07-01 06:00:00 16.4 0 Calma 3 Sur 0 -- -- 95
2020-07-01 05:00:00 16.6 2 Sudeste 4 Sudeste 0 -- -- 94
2020-07-01 04:00:00 17.6 2 Sudeste 5 Sudoeste 0 -- -- 93
2020-07-01 03:00:00 17.7 0 Calma 4 Sudeste 0 -- -- 93
2020-07-01 02:00:00 17.9 0 Calma 5 Sudeste 0 -- -- 92
2020-07-01 01:00:00 18.3 0 Calma 4 Sur 0 -- -- 90
2020-07-01 00:00:00 19.2 2 Sudeste 10 Oeste 0 -- -- 87
2020-06-30 23:00:00 20.3 4 Noroeste 16 Oeste 0 -- -- 82
2020-06-30 22:00:00 21.4 2 Norte 15 Noroeste 0 -- -- 79
2020-06-30 21:00:00 22.8 8 Noroeste 17 Noroeste 0 -- -- 75
2020-06-30 20:00:00 23.8 7 Noroeste 19 Noroeste 0 -- -- 71
2020-06-30 19:00:00 24.8 8 Noroeste 26 Noroeste 0 -- -- 69
2020-06-30 18:00:00 26.9 11 Noroeste 21 Noroeste 0 -- -- 63
2020-06-30 17:00:00 27.1 9 Noroeste 21 Noroeste 0 -- -- 62
2020-06-30 16:00:00 26.9 8 Noroeste 20 Norte 0 -- -- 61
2020-06-30 15:00:00 26.6 9 Noroeste 21 Noroeste 0 -- -- 59
2020-06-30 14:00:00 26.4 5 Nordeste 12 Este 0 -- -- 59
2020-06-30 13:00:00 25.7 4 Este 9 Nordeste 0 -- -- 58
2020-06-30 12:00:00 23.9 3 Noroeste 6 Norte 0 -- -- 63
2020-06-30 11:00:00 21.5 3 Sur 7 Sur 0 -- -- 71
2020-06-30 10:00:00 18.1 2 Este 5 Este 0 -- -- 85
2020-06-30 09:00:00 14.8 0 Calma 3 Norte 0 -- -- 96
2020-06-30 08:00:00 14.3 0 Calma 3 Este 0 -- -- 96
2020-06-30 07:00:00 14.1 0 Calma 8 Sudoeste 0 -- -- 97
2020-06-30 06:00:00 14.3 0 Calma 4 Sudeste 0 -- -- 96
2020-06-30 05:00:00 14.4 0 Calma 2 Norte 0 -- -- 96
2020-06-30 04:00:00 13.7 0 Calma 3 Sudeste 0 -- -- 95
2020-06-30 03:00:00 14.3 0 Calma 3 Sur 0 -- -- 93
2020-06-30 02:00:00 15.3 0 Calma 3 Noroeste 0 -- -- 94
2020-06-30 01:00:00 15.1 0 Calma 2 Noroeste 0 -- -- 94
2020-06-30 00:00:00 15 0 Calma 5 Sudeste 0 -- -- 92
2020-06-29 23:00:00 16.3 2 Sudeste 6 Sur 0 -- -- 87
2020-06-29 22:00:00 18.6 3 Oeste 9 Noroeste 0 -- -- 79
2020-06-29 21:00:00 19.4 5 Noroeste 12 Noroeste 0 -- -- 75
2020-06-29 20:00:00 20.1 5 Norte 15 Noroeste 0 -- -- 72
2020-06-29 19:00:00 20.7 5 Norte 15 Noroeste 0 -- -- 71
2020-06-29 18:00:00 20.8 8 Noroeste 16 Noroeste 0 -- -- 70
2020-06-29 17:00:00 21.8 5 Noroeste 15 Noroeste 0 -- -- 67
2020-06-29 16:00:00 21.3 6 Norte 18 Norte 0 -- -- 68
2020-06-29 15:00:00 20.1 7 Norte 13 Nordeste 0 -- -- 74
2020-06-29 14:00:00 20 5 Noroeste 16 Noroeste 0 -- -- 77
2020-06-29 13:00:00 19.8 5 Noroeste 10 Norte 0 -- -- 79
2020-06-29 12:00:00 19.6 5 Noroeste 14 Norte 0 -- -- 81
2020-06-29 11:00:00 18.6 5 Noroeste 12 Noroeste 0.4 -- -- 89
2020-06-29 10:00:00 18 0 Calma 4 Sudoeste 0 -- -- 91
2020-06-29 09:00:00 17.8 3 Sudoeste 5 Sudoeste 0.2 -- -- 92
2020-06-29 08:00:00 18.1 0 Calma 4 Norte 0 -- -- 91
2020-06-29 07:00:00 18.1 0 Calma 4 Sudoeste 0 -- -- 90
2020-06-29 06:00:00 18.4 0 Calma 15 Norte 0.2 -- -- 90
2020-06-29 05:00:00 19 3 Sudoeste 7 Oeste 0 -- -- 92
2020-06-29 04:00:00 19.2 0 Calma 2 Este 0 -- -- 91
2020-06-29 03:00:00 19.1 0 Calma 4 Este 0 -- -- 89
2020-06-29 02:00:00 19.2 2 Sur 4 Sur 0 -- -- 89
2020-06-29 01:00:00 19.4 0 Calma 3 Este 0 -- -- 88
2020-06-29 00:00:00 19.7 0 Calma 4 Este 0 -- -- 86
2020-06-28 23:00:00 20.2 0 Calma 5 Sudeste 0 -- -- 83
2020-06-28 22:00:00 21.3 2 Sur 5 Norte 0 -- -- 78
2020-06-28 21:00:00 22.8 3 Norte 14 Noroeste 0 -- -- 66
2020-06-28 20:00:00 24.5 6 Norte 14 Noroeste 0 -- -- 60
2020-06-28 19:00:00 25.2 6 Noroeste 14 Noroeste 0 -- -- 63
2020-06-28 18:00:00 26 5 Norte 15 Norte 0 -- -- 63
2020-06-28 17:00:00 25.8 5 Norte 15 Noroeste 0 -- -- 67
2020-06-28 16:00:00 25.3 5 Sudoeste 12 Oeste 0 -- -- 69
2020-06-28 15:00:00 23.1 3 Nordeste 15 Noroeste 0 -- -- 77
2020-06-28 14:00:00 22.5 4 Noroeste 9 Noroeste 0 -- -- 78
2020-06-28 13:00:00 21.3 2 Norte 8 Noroeste 0 -- -- 79
2020-06-28 12:00:00 20.7 4 Noroeste 6 Oeste 0 -- -- 83
2020-06-28 11:00:00 19.8 2 Oeste 5 Noroeste 0 -- -- 87
2020-06-28 10:00:00 19.2 0 Calma 5 Oeste 0 -- -- 91
2020-06-28 09:00:00 18.3 3 Sur 4 Sur 0 -- -- 95
2020-06-28 08:00:00 17.9 0 Calma 2 Sudoeste 0 -- -- 95
2020-06-28 07:00:00 17.9 0 Calma 5 Noroeste 0.2 -- -- 94
2020-06-28 06:00:00 18 3 Sudoeste 6 Sudoeste 0 -- -- 95
2020-06-28 05:00:00 18.3 3 Sudoeste 5 Sudoeste 0.2 -- -- 95
2020-06-28 04:00:00 18.4 3 Sur 7 Sudoeste 0.2 -- -- 94
2020-06-28 03:00:00 18.8 3 Sudoeste 10 Sudoeste 0.2 -- -- 93
2020-06-28 02:00:00 19.6 2 Sudoeste 6 Nordeste 0.4 -- -- 92
2020-06-28 01:00:00 18.9 3 Este 6 Sur 0 -- -- 91
2020-06-28 00:00:00 18.9 0 Calma 3 Sur 0 -- -- 88
2020-06-27 23:00:00 19.2 0 Calma 4 Sudeste 0 -- -- 85
2020-06-27 22:00:00 21.2 2 Sudeste 15 Noroeste 0 -- -- 75
2020-06-27 21:00:00 23.3 7 Noroeste 17 Noroeste 0 -- -- 66
2020-06-27 20:00:00 25 9 Noroeste 19 Noroeste 0 -- -- 65
2020-06-27 19:00:00 26.3 5 Norte 15 Noroeste 0 -- -- 61
2020-06-27 18:00:00 26.8 7 Noroeste 17 Noroeste 0 -- -- 61
2020-06-27 17:00:00 26.1 10 Noroeste 23 Noroeste 0 -- -- 61
2020-06-27 16:00:00 27 8 Norte 17 Noroeste 0 -- -- 61
2020-06-27 15:00:00 27.3 9 Noroeste 19 Noroeste 0 -- -- 58
2020-06-27 14:00:00 27.1 8 Norte 18 Noroeste 0 -- -- 60
2020-06-27 13:00:00 26.3 8 Noroeste 14 Noroeste 0 -- -- 61
2020-06-27 12:00:00 25.6 3 Oeste 9 Noroeste 0 -- -- 68
2020-06-27 11:00:00 23.5 2 Nordeste 6 Este 0 -- -- 77
2020-06-27 10:00:00 20.7 2 Noroeste 5 Nordeste 0 -- -- 84
2020-06-27 09:00:00 17.9 0 Calma 4 Noroeste 0 -- -- 94
2020-06-27 08:00:00 17 0 Calma 3 Norte 0 -- -- 96
2020-06-27 07:00:00 16.5 0 Calma 3 Nordeste 0 -- -- 97
2020-06-27 06:00:00 16.5 0 Calma 4 Norte 0 -- -- 97
2020-06-27 05:00:00 16.4 0 Calma 6 Nordeste 0 -- -- 96
2020-06-27 04:00:00 16.8 0 Calma 4 Sudeste 0 -- -- 96
2020-06-27 03:00:00 17.1 0 Calma 7 Norte 0 -- -- 95
2020-06-27 02:00:00 17.9 2 Sudoeste 4 Sudoeste 0 -- -- 95
2020-06-27 01:00:00 17.9 0 Calma 3 Noroeste 0.2 -- -- 95
2020-06-27 00:00:00 18.1 0 Calma 4 Este 0 -- -- 94
2020-06-26 23:00:00 18.2 0 Calma 8 Sudoeste 0 -- -- 93
2020-06-26 22:00:00 18.3 2 Este 7 Nordeste 0 -- -- 92
2020-06-26 21:00:00 18.5 3 Sudoeste 7 Sudoeste 0 -- -- 92
2020-06-26 20:00:00 19.1 3 Noroeste 6 Noroeste 0 -- -- 90
2020-06-26 19:00:00 19.1 0 Calma 9 Norte 0 -- -- 91
2020-06-26 18:00:00 19.5 3 Norte 11 Norte 0.2 -- -- 89
2020-06-26 17:00:00 20 5 Norte 12 Norte 0 -- -- 86
2020-06-26 16:00:00 20.1 5 Nordeste 12 Nordeste 0 -- -- 84
2020-06-26 15:00:00 20.6 3 Norte 13 Oeste 0 -- -- 84
2020-06-26 14:00:00 21 2 Noroeste 13 Oeste 0 -- -- 84
2020-06-26 13:00:00 21.3 6 Oeste 12 Oeste 0 -- -- 83
2020-06-26 12:00:00 20.8 5 Oeste 10 Sudoeste 0 -- -- 86
2020-06-26 11:00:00 19.8 3 Oeste 10 Noroeste 0 -- -- 88
2020-06-26 10:00:00 19.5 2 Norte 8 Noroeste 0 -- -- 89
2020-06-26 09:00:00 18.9 2 Noroeste 11 Norte 0 -- -- 92
2020-06-26 08:00:00 18.5 4 Norte 8 Este 0 -- -- 92
2020-06-26 07:00:00 18.2 0 Calma 2 Nordeste 0 -- -- 95
2020-06-26 06:00:00 18.1 0 Calma 2 Sur 0 -- -- 95
2020-06-26 05:00:00 18.3 0 Calma 3 Sur 0 -- -- 95
2020-06-26 04:00:00 18.5 0 Calma 4 Sur 0 -- -- 95
2020-06-26 03:00:00 18.6 2 Sur 8 Noroeste 0 -- -- 96
2020-06-26 02:00:00 18.7 4 Norte 9 Norte 0 -- -- 96
2020-06-26 01:00:00 18.7 0 Calma 4 Norte 0.2 -- -- 97
2020-06-26 00:00:00 18.7 0 Calma 7 Oeste 0 -- -- 97
2020-06-25 23:00:00 18.6 2 Noroeste 14 Noroeste 0 -- -- 96
2020-06-25 22:00:00 19.2 2 Sur 26 Norte 0.6 -- -- 95
2020-06-25 21:00:00 19.8 10 Este 23 Nordeste 4 -- -- 93
2020-06-25 20:00:00 20 3 Nordeste 13 Oeste 0.2 -- -- 90
2020-06-25 19:00:00 21.1 3 Oeste 12 Nordeste 0 -- -- 82
2020-06-25 18:00:00 20.4 3 Nordeste 23 Oeste 0 -- -- 82
2020-06-25 17:00:00 20.6 9 Noroeste 25 Oeste 0 -- -- 82
2020-06-25 16:00:00 23.5 11 Norte 23 Noroeste 0 -- -- 74
2020-06-25 15:00:00 25.6 6 Este 15 Sudeste 0 -- -- 75
2020-06-25 14:00:00 25.5 7 Este 17 Noroeste 0 -- -- 72
2020-06-25 13:00:00 24.5 10 Norte 23 Norte 0 -- -- 73
2020-06-25 12:00:00 24.5 12 Norte 27 Nordeste 0 -- -- 73
2020-06-25 11:00:00 24.1 4 Oeste 10 Noroeste 0 -- -- 79
2020-06-25 10:00:00 22 4 Oeste 17 Oeste 0 -- -- 84
2020-06-25 09:00:00 20.9 2 Norte 5 Noroeste 0 -- -- 88
2020-06-25 08:00:00 18.3 0 Calma 4 Sudoeste 0 -- -- 96
2020-06-25 07:00:00 17.2 0 Calma 5 Sudeste 0 -- -- 96
2020-06-25 06:00:00 16.7 0 Calma 4 Sudeste 0 -- -- 95
2020-06-25 05:00:00 17 0 Calma 3 Sur 0 -- -- 94
2020-06-25 04:00:00 17.5 0 Calma 3 Sur 0 -- -- 94
2020-06-25 03:00:00 17.9 0 Calma 5 Sur 0 -- -- 93
2020-06-25 02:00:00 18.7 0 Calma 8 Sur 0 -- -- 92
2020-06-25 01:00:00 19.5 0 Calma 5 Sur 0 -- -- 89
2020-06-25 00:00:00 21.2 0 Calma 5 Sur 0 -- -- 86
2020-06-24 23:00:00 21.7 2 Sudeste 5 Noroeste 0 -- -- 85
2020-06-24 22:00:00 21.7 5 Norte 16 Noroeste 0 -- -- 84
2020-06-24 21:00:00 22.9 9 Noroeste 31 Norte 0 -- -- 82
2020-06-24 20:00:00 27 9 Noroeste 18 Noroeste 0 -- -- 72
2020-06-24 19:00:00 29.4 5 Nordeste 15 Nordeste 0 -- -- 67
2020-06-24 18:00:00 29.4 8 Nordeste 21 Noroeste 0 -- -- 66
2020-06-24 17:00:00 30.1 4 Nordeste 16 Noroeste 0 -- -- 65
2020-06-24 16:00:00 29.5 10 Noroeste 21 Noroeste 0 -- -- 65
2020-06-24 15:00:00 31.2 9 Noroeste 19 Noroeste 0 -- -- 60
2020-06-24 14:00:00 31.5 10 Noroeste 19 Noroeste 0 -- -- 58
2020-06-24 13:00:00 32.3 5 Nordeste 13 Nordeste 0 -- -- 50
2020-06-24 12:00:00 32 3 Noroeste 7 Noroeste 0 -- -- 48
2020-06-24 11:00:00 29.3 2 Nordeste 4 Nordeste 0 -- -- 62
2020-06-24 10:00:00 25 0 Calma 4 Norte 0 -- -- 76
2020-06-24 09:00:00 21.4 0 Calma 3 Norte 0 -- -- 84
2020-06-24 08:00:00 18.1 0 Calma 3 Noroeste 0 -- -- 95
2020-06-24 07:00:00 16 0 Calma 3 Sudeste 0 -- -- 96
2020-06-24 06:00:00 16.2 0 Calma 2 Sur 0 -- -- 95
2020-06-24 05:00:00 16.6 0 Calma 2 Sur 0 -- -- 95
2020-06-24 04:00:00 17 0 Calma 3 Sudeste 0 -- -- 94
2020-06-24 03:00:00 17.7 0 Calma 5 Sur 0 -- -- 94
2020-06-24 02:00:00 17.7 0 Calma 2 Sudeste 0 -- -- 93
2020-06-24 01:00:00 18.4 0 Calma 3 Sudeste 0 -- -- 91
2020-06-24 00:00:00 19.7 0 Calma 4 Sudeste 0 -- -- 90
2020-06-23 23:00:00 20.9 0 Calma 3 Sudeste 0 -- -- 88
2020-06-23 22:00:00 23.4 0 Calma 4 Sudeste 0 -- -- 81
2020-06-23 21:00:00 27 2 Noroeste 6 Norte 0 -- -- 67
2020-06-23 20:00:00 29.7 3 Sudeste 12 Sudeste 0 -- -- 54
2020-06-23 19:00:00 30.8 6 Este 18 Este 0 -- -- 49
2020-06-23 18:00:00 31.5 5 Este 17 Sudeste 0 -- -- 50
2020-06-23 17:00:00 31.6 6 Este 19 Sudeste 0 -- -- 52
2020-06-23 16:00:00 31.1 6 Este 18 Este 0 -- -- 52
2020-06-23 15:00:00 30.6 8 Este 17 Este 0 -- -- 52
2020-06-23 14:00:00 29.8 6 Este 16 Sudeste 0 -- -- 55
2020-06-23 13:00:00 28.6 5 Este 13 Este 0 -- -- 55
2020-06-23 12:00:00 26.4 3 Nordeste 8 Este 0 -- -- 66
2020-06-23 11:00:00 22.2 0 Calma 5 Noroeste 0 -- -- 76
2020-06-23 10:00:00 18.2 2 Sur 5 Sudoeste 0 -- -- 87
2020-06-23 09:00:00 15.7 0 Calma 4 Oeste 0 -- -- 96
2020-06-23 08:00:00 14.8 0 Calma 5 Sudeste 0 -- -- 97
2020-06-23 07:00:00 14.6 0 Calma 3 Sudeste 0 -- -- 97
2020-06-23 06:00:00 14.6 0 Calma 3 Este 0 -- -- 96
2020-06-23 05:00:00 14.7 0 Calma 3 Noroeste 0 -- -- 96
2020-06-23 04:00:00 14.7 0 Calma 2 Nordeste 0 -- -- 96
2020-06-23 03:00:00 13.8 0 Calma 3 Sudeste 0 -- -- 96
2020-06-23 02:00:00 13.9 0 Calma 3 Sudeste 0 -- -- 94
2020-06-23 01:00:00 14.5 0 Calma 3 Sudeste 0 -- -- 92
2020-06-23 00:00:00 15.5 0 Calma 3 Sudeste 0 -- -- 90
2020-06-22 23:00:00 17.1 2 Sudeste 6 Noroeste 0 -- -- 86
2020-06-22 22:00:00 19.2 2 Oeste 11 Nordeste 0 -- -- 81
2020-06-22 21:00:00 21.1 8 Noroeste 17 Noroeste 0 -- -- 75
2020-06-22 20:00:00 22.4 10 Noroeste 20 Noroeste 0 -- -- 70
2020-06-22 19:00:00 23.1 10 Noroeste 21 Noroeste 0 -- -- 68
2020-06-22 18:00:00 23.7 10 Norte 24 Noroeste 0 -- -- 65
2020-06-22 17:00:00 24.9 10 Noroeste 22 Noroeste 0 -- -- 63
2020-06-22 16:00:00 25.7 6 Nordeste 18 Este 0 -- -- 61
2020-06-22 15:00:00 25.1 5 Sudeste 18 Norte 0 -- -- 57
2020-06-22 14:00:00 23.6 6 Este 15 Este 0 -- -- 62
2020-06-22 13:00:00 23 5 Nordeste 13 Sur 0 -- -- 68
2020-06-22 12:00:00 21.4 4 Nordeste 9 Nordeste 0 -- -- 75
2020-06-22 11:00:00 19.5 0 Calma 3 Este 0 -- -- 81
2020-06-22 10:00:00 18.5 0 Calma 3 Este 0 -- -- 86
2020-06-22 09:00:00 17.4 0 Calma -- -- 0 -- -- 90
2020-06-22 08:00:00 16.8 0 Calma 0 Calma 0 -- -- 92
2020-06-22 07:00:00 16.6 0 Calma 3 Sudeste 0 -- -- 92
2020-06-22 06:00:00 16.4 0 Calma 2 Sudeste 0 -- -- 93
2020-06-22 05:00:00 16.4 0 Calma 2 Sudeste 0 -- -- 92
2020-06-22 04:00:00 16.5 0 Calma 3 Sur 0 -- -- 91
2020-06-22 03:00:00 16.2 0 Calma 2 Sur 0 -- -- 93
2020-06-22 02:00:00 15.7 0 Calma 5 Sur 0 -- -- 93
2020-06-22 01:00:00 15.7 0 Calma 4 Sudeste 0 -- -- 92
2020-06-22 00:00:00 15.7 0 Calma 4 Sudeste 0 -- -- 89
2020-06-21 23:00:00 17.2 0 Calma 8 Nordeste 0 -- -- 86
2020-06-21 22:00:00 19.6 4 Nordeste 12 Nordeste 0 -- -- 78
2020-06-21 21:00:00 20.5 6 Norte 14 Noroeste 0 -- -- 77
2020-06-21 20:00:00 21.7 6 Norte 18 Noroeste 0 -- -- 71
2020-06-21 19:00:00 22.5 7 Norte 19 Norte 0 -- -- 61
2020-06-21 18:00:00 23.8 8 Noroeste 19 Noroeste 0 -- -- 58
2020-06-21 17:00:00 24.3 10 Norte 26 Noroeste 0 -- -- 60
2020-06-21 16:00:00 25.2 10 Norte 20 Nordeste 0 -- -- 58
2020-06-21 15:00:00 25.8 7 Norte 18 Norte 0 -- -- 51
2020-06-21 14:00:00 26.1 5 Norte 15 Norte 0 -- -- 55
2020-06-21 13:00:00 25.1 4 Sur 10 Sudeste 0 -- -- 50
2020-06-21 12:00:00 23.7 4 Norte 9 Noroeste 0 -- -- 59
2020-06-21 11:00:00 20.7 0 Calma 4 Nordeste 0 -- -- 74
2020-06-21 10:00:00 16.9 3 Sur 5 Sudeste 0 -- -- 88
2020-06-21 09:00:00 14.6 0 Calma 3 Sudeste 0 -- -- 95
2020-06-21 08:00:00 13.6 0 Calma 5 Este 0 -- -- 96
2020-06-21 07:00:00 13.3 3 Sudeste 5 Este 0 -- -- 97
2020-06-21 06:00:00 13.3 0 Calma 3 Sudeste 0 -- -- 96
2020-06-21 05:00:00 13.3 0 Calma 2 Nordeste 0 -- -- 96
2020-06-21 04:00:00 12.4 0 Calma 2 Sudeste 0 -- -- 96
2020-06-21 03:00:00 12.2 0 Calma 3 Sur 0 -- -- 95
2020-06-21 02:00:00 12.8 0 Calma 3 Sudeste 0 -- -- 93
2020-06-21 01:00:00 13.6 0 Calma 3 Sudeste 0 -- -- 93
2020-06-21 00:00:00 14.6 0 Calma 4 Este 0 -- -- 90
2020-06-20 23:00:00 16.4 0 Calma 7 Noroeste 0 -- -- 85
2020-06-20 22:00:00 18.6 4 Noroeste 15 Noroeste 0 -- -- 76
2020-06-20 21:00:00 20.4 8 Noroeste 18 Noroeste 0 -- -- 70
2020-06-20 20:00:00 21.8 10 Noroeste 22 Noroeste 0 -- -- 67
2020-06-20 19:00:00 22.6 9 Noroeste 19 Noroeste 0 -- -- 66
2020-06-20 18:00:00 23.6 8 Noroeste 22 Noroeste 0 -- -- 64
2020-06-20 17:00:00 23.5 9 Norte 23 Noroeste 0 -- -- 65
2020-06-20 16:00:00 23.7 8 Norte 24 Noroeste 0 -- -- 64
2020-06-20 15:00:00 24.2 8 Norte 18 Norte 0 -- -- 62
2020-06-20 14:00:00 23.4 7 Norte 17 Noroeste 0 -- -- 65
2020-06-20 13:00:00 23 6 Norte 16 Noroeste 0 -- -- 66
2020-06-20 12:00:00 22.4 4 Noroeste 10 Norte 0 -- -- 65
2020-06-20 11:00:00 20.5 4 Norte 8 Noroeste 0 -- -- 71
2020-06-20 10:00:00 19.2 3 Nordeste 5 Nordeste 0 -- -- 75
2020-06-20 09:00:00 16.6 0 Calma 2 Oeste 0 -- -- 89
2020-06-20 08:00:00 14.8 0 Calma 2 Norte 0 -- -- 95
2020-06-20 07:00:00 14.5 0 Calma 3 Sudeste 0 -- -- 94
2020-06-20 06:00:00 15.3 0 Calma 2 Sur 0 -- -- 91
2020-06-20 05:00:00 16 0 Calma 5 Sudeste 0 -- -- 91
2020-06-20 04:00:00 16.1 0 Calma 3 Este 0 -- -- 91
2020-06-20 03:00:00 16.1 0 Calma 3 Sudeste 0 -- -- 90
2020-06-20 02:00:00 16.6 0 Calma 3 Noroeste 0 -- -- 89
2020-06-20 01:00:00 16.7 0 Calma 2 Este 0 -- -- 87
2020-06-20 00:00:00 16.9 0 Calma 4 Sur 0 -- -- 85
2020-06-19 23:00:00 17.3 2 Sudoeste 6 Norte 0 -- -- 81
2020-06-19 22:00:00 17.8 2 Norte 11 Nordeste 0 -- -- 75
2020-06-19 21:00:00 18.4 3 Norte 14 Noroeste 0 -- -- 73
2020-06-19 20:00:00 19.4 6 Noroeste 16 Noroeste 0 -- -- 70
2020-06-19 19:00:00 20.5 6 Noroeste 16 Noroeste 0 -- -- 65
2020-06-19 18:00:00 20.6 7 Noroeste 16 Noroeste 0 -- -- 64
2020-06-19 17:00:00 20.2 8 Noroeste 21 Noroeste 0 -- -- 69
2020-06-19 16:00:00 20.3 8 Noroeste 18 Noroeste 0 -- -- 70
2020-06-19 15:00:00 21.8 10 Noroeste 22 Noroeste 0 -- -- 67
2020-06-19 14:00:00 21.7 7 Norte 18 Noroeste 0 -- -- 68
2020-06-19 13:00:00 21.1 6 Norte 15 Noroeste 0 -- -- 71
2020-06-19 12:00:00 20.1 6 Norte 13 Noroeste 0 -- -- 69
2020-06-19 11:00:00 18.4 2 Este 6 Sudeste 0 -- -- 71
2020-06-19 10:00:00 14.3 3 Sur 6 Sur 0 -- -- 92
2020-06-19 09:00:00 12.4 0 Calma 3 Sudeste 0 -- -- 95
2020-06-19 08:00:00 12 0 Calma 4 Noroeste 0 -- -- 97
2020-06-19 07:00:00 11.7 0 Calma 4 Norte 0 -- -- 97
2020-06-19 06:00:00 11.7 0 Calma 3 Este 0 -- -- 97
2020-06-19 05:00:00 11.7 2 Sur 4 Sudoeste 0 -- -- 97
2020-06-19 04:00:00 11.8 0 Calma 3 Oeste 0 -- -- 96
2020-06-19 03:00:00 11.5 0 Calma 2 Noroeste 0 -- -- 96
2020-06-19 02:00:00 10.8 0 Calma 4 Sudeste 0 -- -- 95
2020-06-19 01:00:00 10.9 0 Calma 4 Sudeste 0 -- -- 94
2020-06-19 00:00:00 11.7 0 Calma 4 Sudeste 0 -- -- 92
2020-06-18 23:00:00 12.8 0 Calma 4 Sudeste 0 -- -- 89
2020-06-18 22:00:00 15.2 0 Calma 9 Noroeste 0 -- -- 83
2020-06-18 21:00:00 17.7 4 Norte 12 Noroeste 0 -- -- 72
2020-06-18 20:00:00 18.6 5 Noroeste 14 Noroeste 0 -- -- 66
2020-06-18 19:00:00 18.7 8 Noroeste 19 Noroeste 0 -- -- 68
2020-06-18 18:00:00 19.2 8 Noroeste 18 Noroeste 0 -- -- 67
2020-06-18 17:00:00 18.8 8 Noroeste 20 Noroeste 0 -- -- 70
2020-06-18 16:00:00 19.3 8 Noroeste 18 Norte 0 -- -- 69
2020-06-18 15:00:00 18.8 6 Norte 18 Noroeste 0 -- -- 67
2020-06-18 14:00:00 19.3 3 Nordeste 14 Noroeste 0 -- -- 68
2020-06-18 13:00:00 19.4 4 Oeste 11 Nordeste 0 -- -- 68
2020-06-18 12:00:00 19 3 Sur 8 Sudeste 0 -- -- 67
2020-06-18 11:00:00 18.3 0 Calma 6 Oeste 0 -- -- 74
2020-06-18 10:00:00 15.4 2 Nordeste 5 Nordeste 0 -- -- 88
2020-06-18 09:00:00 13.5 0 Calma 5 Norte 0 -- -- 95
2020-06-18 08:00:00 12.6 0 Calma 5 Oeste 0 -- -- 97
2020-06-18 07:00:00 12.2 3 Noroeste 5 Oeste 1.8 -- -- 96
2020-06-18 06:00:00 12.2 0 Calma 5 Oeste 1.4 -- -- 96
2020-06-18 05:00:00 11.9 0 Calma 3 Nordeste 0 -- -- 96
2020-06-18 04:00:00 11.6 0 Calma 3 Este 0 -- -- 95
2020-06-18 03:00:00 11.7 0 Calma 4 Sudeste 0 -- -- 94
2020-06-18 02:00:00 12.2 0 Calma 3 Sudeste 0 -- -- 94
2020-06-18 01:00:00 12.9 0 Calma 4 Este 0 -- -- 93
2020-06-18 00:00:00 13.8 0 Calma 4 Sur 0 -- -- 91
2020-06-17 23:00:00 14.1 0 Calma 4 Sudeste 0 -- -- 90
2020-06-17 22:00:00 15 0 Calma 4 Sudeste 0 -- -- 85
2020-06-17 21:00:00 16.9 0 Calma 15 Oeste 0 -- -- 77
2020-06-17 20:00:00 18.2 6 Noroeste 21 Oeste 0 -- -- 68
2020-06-17 19:00:00 18.7 5 Oeste 21 Sudoeste 0 -- -- 66
2020-06-17 18:00:00 18.7 3 Oeste 18 Noroeste 0 -- -- 68
2020-06-17 17:00:00 19.3 12 Noroeste 21 Oeste 0 -- -- 61
2020-06-17 16:00:00 18.9 10 Oeste 26 Norte 0 -- -- 64
2020-06-17 15:00:00 19.7 10 Oeste 23 Oeste 0 -- -- 61
2020-06-17 14:00:00 19.3 10 Noroeste 22 Oeste 0 -- -- 67
2020-06-17 13:00:00 18.9 6 Oeste 19 Noroeste 0 -- -- 66
2020-06-17 12:00:00 17.8 9 Noroeste 21 Oeste 0 -- -- 71
2020-06-17 11:00:00 17.1 8 Sudoeste 22 Oeste 0 -- -- 72
2020-06-17 10:00:00 15.9 0 Calma 4 Sur 0 -- -- 83
2020-06-17 09:00:00 14.1 0 Calma 3 Noroeste 0 -- -- 93
2020-06-17 08:00:00 13 0 Calma 3 Noroeste 0 -- -- 96
2020-06-17 07:00:00 12.4 0 Calma 4 Nordeste 0 -- -- 96
2020-06-17 06:00:00 12.4 0 Calma 3 Noroeste 0 -- -- 96
2020-06-17 05:00:00 12.7 0 Calma 4 Sur 0 -- -- 96
2020-06-17 04:00:00 12.5 0 Calma 3 Oeste 0 -- -- 96
2020-06-17 03:00:00 12 0 Calma 4 Oeste 0 -- -- 96
2020-06-17 02:00:00 12.4 0 Calma 3 Sudeste 0 -- -- 96
2020-06-17 01:00:00 12.6 0 Calma 3 Nordeste 0 -- -- 95
2020-06-17 00:00:00 13.1 0 Calma 4 Sur 0 -- -- 93
2020-06-16 23:00:00 14 2 Sudeste 4 Noroeste 0 -- -- 92
2020-06-16 22:00:00 15 0 Calma 5 Sur 0 -- -- 91
2020-06-16 21:00:00 15.8 0 Calma 6 Oeste 0 -- -- 89
2020-06-16 20:00:00 16.2 2 Oeste 18 Noroeste 0.6 -- -- 86
2020-06-16 19:00:00 17.3 6 Noroeste 18 Noroeste 0 -- -- 76
2020-06-16 18:00:00 19.1 4 Oeste 15 Sudoeste 0 -- -- 75
2020-06-16 17:00:00 18.7 3 Noroeste 16 Oeste 0 -- -- 78
2020-06-16 16:00:00 18.2 5 Sudoeste 10 Sudoeste 0.6 -- -- 81
2020-06-16 15:00:00 17.4 2 Sudeste 23 Noroeste 1.2 -- -- 84
2020-06-16 14:00:00 20.9 9 Noroeste 22 Noroeste 0 -- -- 65
2020-06-16 13:00:00 21.6 3 Sudoeste 8 Sudoeste 0 -- -- 68
2020-06-16 12:00:00 19.6 3 Sur 7 Sur 0 -- -- 70
2020-06-16 11:00:00 16.9 0 Calma 5 Noroeste 0 -- -- 82
2020-06-16 10:00:00 15.7 0 Calma 5 Nordeste 0 -- -- 84
2020-06-16 09:00:00 14.4 0 Calma 3 Sudeste 0 -- -- 90
2020-06-16 08:00:00 13.5 0 Calma 5 Este 0 -- -- 93
2020-06-16 07:00:00 12.5 3 Sudeste 6 Sudeste 0 -- -- 94
2020-06-16 06:00:00 13 2 Este 5 Este 0 -- -- 94
2020-06-16 05:00:00 13.1 0 Calma 3 Sudeste 0 -- -- 93
2020-06-16 04:00:00 13 0 Calma 3 Sudeste 0 -- -- 93
2020-06-16 03:00:00 12.8 2 Oeste 5 Sudeste 0 -- -- 93
2020-06-16 02:00:00 12.8 0 Calma 3 Sur 0 -- -- 92
2020-06-16 01:00:00 13.4 0 Calma 3 Sudeste 0 -- -- 91
2020-06-16 00:00:00 13.5 0 Calma 3 Sudeste 0 -- -- 90
2020-06-15 23:00:00 14.4 0 Calma 5 Sudeste 0 -- -- 86
2020-06-15 22:00:00 15.8 0 Calma 3 Sudeste 0 -- -- 81
2020-06-15 21:00:00 17.8 0 Calma 13 Noroeste 0 -- -- 74
2020-06-15 20:00:00 20.1 5 Norte 12 Noroeste 0 -- -- 58
2020-06-15 19:00:00 20.6 4 Norte 15 Noroeste 0 -- -- 59
2020-06-15 18:00:00 21.5 6 Nordeste 12 Nordeste 0 -- -- 54
2020-06-15 17:00:00 21.3 4 Norte 17 Noroeste 0 -- -- 55
2020-06-15 16:00:00 21.2 5 Norte 20 Norte 0 -- -- 58
2020-06-15 15:00:00 21.7 4 Nordeste 11 Nordeste 0 -- -- 56
2020-06-15 14:00:00 20.7 7 Noroeste 17 Noroeste 0 -- -- 61
2020-06-15 13:00:00 19.9 5 Norte 13 Nordeste 0 -- -- 65
2020-06-15 12:00:00 21.2 5 Nordeste 8 Norte 0 -- -- 57
2020-06-15 11:00:00 19.6 3 Sur 6 Sur 0 -- -- 66
2020-06-15 10:00:00 15.8 0 Calma 3 Sudoeste 0 -- -- 82
2020-06-15 09:00:00 13.8 0 Calma 2 Sudeste 0 -- -- 91
2020-06-15 08:00:00 13 0 Calma 3 Este 0 -- -- 94
2020-06-15 07:00:00 12.5 0 Calma 2 Este 0 -- -- 95
2020-06-15 06:00:00 12.3 0 Calma 2 Sudeste 0 -- -- 95
2020-06-15 05:00:00 12.1 0 Calma 2 Nordeste 0 -- -- 95
2020-06-15 04:00:00 11.7 0 Calma 3 Sudeste 0 -- -- 95
2020-06-15 03:00:00 11.4 0 Calma 4 Este 0 -- -- 93
2020-06-15 02:00:00 12.2 0 Calma 3 Sudeste 0 -- -- 93
2020-06-15 01:00:00 12.8 0 Calma 3 Sudeste 0 -- -- 90
2020-06-15 00:00:00 14 0 Calma 3 Sudeste 0 -- -- 90
2020-06-14 23:00:00 14.6 0 Calma 5 Sudeste 0 -- -- 86
2020-06-14 22:00:00 16.5 3 Sudeste 10 Norte 0 -- -- 79
2020-06-14 21:00:00 19.1 5 Noroeste 15 Sudoeste 0 -- -- 68
2020-06-14 20:00:00 20.3 6 Oeste 15 Oeste 0 -- -- 60
2020-06-14 19:00:00 20.7 4 Oeste 14 Noroeste 0 -- -- 58
2020-06-14 18:00:00 22.1 5 Noroeste 27 Noroeste 0 -- -- 53
2020-06-14 17:00:00 22.4 10 Norte 25 Oeste 0 -- -- 55
2020-06-14 16:00:00 23.4 9 Oeste 19 Noroeste 0 -- -- 60
2020-06-14 15:00:00 22.2 9 Norte 25 Noroeste 0 -- -- 61
2020-06-14 14:00:00 23.8 7 Noroeste 18 Noroeste 0 -- -- 58
2020-06-14 13:00:00 23.4 3 Sur 10 Oeste 0 -- -- 57
2020-06-14 12:00:00 21.9 3 Noroeste 9 Noroeste 0 -- -- 61
2020-06-14 11:00:00 19.9 4 Sudoeste 7 Sur 0 -- -- 68
2020-06-14 10:00:00 17.6 2 Noroeste 5 Oeste 0 -- -- 83
2020-06-14 09:00:00 14.6 2 Oeste 5 Sudeste 0 -- -- 93
2020-06-14 08:00:00 13.8 0 Calma 4 Noroeste 0 -- -- 96
2020-06-14 07:00:00 13.1 0 Calma 4 Noroeste 0 -- -- 95
2020-06-14 06:00:00 13.9 0 Calma 4 Este 0 -- -- 94
2020-06-14 05:00:00 14.3 0 Calma 2 Nordeste 0 -- -- 94
2020-06-14 04:00:00 14.4 0 Calma 2 Norte 0 -- -- 94
2020-06-14 03:00:00 14.5 0 Calma 2 Nordeste 0 -- -- 94
2020-06-14 02:00:00 14.5 0 Calma 3 Sur 0 -- -- 93
2020-06-14 01:00:00 14.6 0 Calma 3 Noroeste 0 -- -- 93
2020-06-14 00:00:00 14.5 0 Calma 4 Sudeste 0 -- -- 92
2020-06-13 23:00:00 15.5 0 Calma 6 Sudeste 0 -- -- 88
2020-06-13 22:00:00 16.4 0 Calma 7 Noroeste 0 -- -- 83
2020-06-13 21:00:00 17.4 2 Sudeste 11 Norte 0 -- -- 75
2020-06-13 20:00:00 18 4 Norte 14 Noroeste 0 -- -- 72
2020-06-13 19:00:00 18.4 6 Noroeste 12 Noroeste 0 -- -- 71
2020-06-13 18:00:00 17.9 0 Calma 10 Oeste 2.2 -- -- 80
2020-06-13 17:00:00 19.3 8 Noroeste 22 Norte 0 -- -- 64
2020-06-13 16:00:00 22 10 Norte 24 Noroeste 0 -- -- 56
2020-06-13 15:00:00 21.3 4 Norte 14 Norte 0 -- -- 60
2020-06-13 14:00:00 21.9 5 Sudoeste 16 Noroeste 0 -- -- 60
2020-06-13 13:00:00 20.3 5 Norte 17 Noroeste 0 -- -- 59
2020-06-13 12:00:00 19.3 3 Oeste 9 Oeste 0 -- -- 63
2020-06-13 11:00:00 16 0 Calma 3 Este 0 -- -- 84
2020-06-13 10:00:00 13.7 0 Calma 6 Sudoeste 0 -- -- 95
2020-06-13 09:00:00 12.4 0 Calma 2 Sudeste 0 -- -- 97
2020-06-13 08:00:00 11.7 0 Calma 2 Oeste 0 -- -- 98
2020-06-13 07:00:00 11.1 0 Calma 3 Sudeste 0 -- -- 98
2020-06-13 06:00:00 11 0 Calma 2 Oeste 0 -- -- 98
2020-06-13 05:00:00 10.6 0 Calma 2 Este 0 -- -- 98
2020-06-13 04:00:00 10.3 0 Calma 3 Sudeste 0 -- -- 97
2020-06-13 03:00:00 10 0 Calma 5 Este 0 -- -- 96
2020-06-13 02:00:00 11 2 Sudeste 5 Sudeste 0 -- -- 97
2020-06-13 01:00:00 11.5 0 Calma 5 Sudeste 0 -- -- 96
2020-06-13 00:00:00 11.6 0 Calma 5 Sudeste 0 -- -- 95
2020-06-12 23:00:00 12.5 0 Calma 4 Sur 0 -- -- 94
2020-06-12 22:00:00 13.6 0 Calma 5 Sur 0 -- -- 91
2020-06-12 21:00:00 14.5 3 Oeste 7 Oeste 0 -- -- 88
2020-06-12 20:00:00 14.1 0 Calma 6 Nordeste 0.8 -- -- 93
2020-06-12 19:00:00 14.2 2 Sudeste 31 Noroeste 7 -- -- 89
2020-06-12 18:00:00 17.7 8 Norte 23 Noroeste 0 -- -- 69
2020-06-12 17:00:00 18.4 8 Norte 23 Sudoeste 0 -- -- 67
2020-06-12 16:00:00 20.5 9 Sudoeste 30 Oeste 0 -- -- 49
2020-06-12 15:00:00 21 12 Sudoeste 31 Sudoeste 0 -- -- 49
2020-06-12 14:00:00 18.8 15 Sudoeste 32 Sudoeste 0 -- -- 55
2020-06-12 13:00:00 20.1 8 Sur 25 Sudoeste 0 -- -- 55
2020-06-12 12:00:00 18.8 9 Sudeste 27 Sudoeste 0 -- -- 54
2020-06-12 11:00:00 17.4 8 Sur 23 Sudoeste 0 -- -- 61
2020-06-12 10:00:00 16 7 Sur 25 Sudoeste 0 -- -- 66
2020-06-12 09:00:00 15.1 4 Sudoeste 32 Oeste 0 -- -- 66
2020-06-12 08:00:00 14 6 Sudoeste 17 Sudoeste 0 -- -- 69
2020-06-12 07:00:00 13 9 Sudeste 24 Sur 0 -- -- 72
2020-06-12 06:00:00 11.9 9 Sudeste 24 Sur 0.2 -- -- 77
2020-06-12 05:00:00 7.9 2 Noroeste 8 Noroeste 0 -- -- 98
2020-06-12 04:00:00 8.2 0 Calma 8 Este 0 -- -- 97
2020-06-12 03:00:00 9 2 Este 6 Sudeste 0 -- -- 97
2020-06-12 02:00:00 9.7 0 Calma 8 Este 0 -- -- 97
2020-06-12 01:00:00 10.4 2 Sudeste 4 Este 0 -- -- 96
2020-06-12 00:00:00 11.6 2 Este 4 Este 0.4 -- -- 97
2020-06-11 23:00:00 11.7 0 Calma 8 Este 0.4 -- -- 96
2020-06-11 22:00:00 11.8 3 Este 6 Sudeste 3.6 -- -- 95
2020-06-11 21:00:00 12.2 2 Este 6 Nordeste 1.4 -- -- 95
2020-06-11 20:00:00 12.5 3 Este 6 Este 3.2 -- -- 94
2020-06-11 19:00:00 13 0 Calma 6 Oeste 3.6 -- -- 94
2020-06-11 18:00:00 13.3 0 Calma 6 Este 1.2 -- -- 92
2020-06-11 17:00:00 12.9 3 Este 23 Oeste 2.4 -- -- 91
2020-06-11 16:00:00 13.5 13 Oeste 36 Oeste 3.6 -- -- 87
2020-06-11 15:00:00 18.3 15 Noroeste 37 Oeste 0 -- -- 75
2020-06-11 14:00:00 19.7 5 Sur 18 Sudoeste 0 -- -- 63
2020-06-11 13:00:00 18.2 0 Calma 7 Este 0 -- -- 72
2020-06-11 12:00:00 16.5 3 Sudeste 6 Noroeste 0 -- -- 85
2020-06-11 11:00:00 15.7 0 Calma 4 Noroeste 0 -- -- 87
2020-06-11 10:00:00 14.6 0 Calma 3 Este 0 -- -- 90
2020-06-11 09:00:00 13.5 0 Calma 2 Sudoeste 0.2 -- -- 96
2020-06-11 08:00:00 13.1 0 Calma 3 Noroeste 0 -- -- 97
2020-06-11 07:00:00 13 0 Calma 4 Nordeste 0 -- -- 97
2020-06-11 06:00:00 13.2 0 Calma 0 Calma 0 -- -- 97
2020-06-11 05:00:00 13.3 0 Calma 2 Sudeste 0 -- -- 96
2020-06-11 04:00:00 13.4 0 Calma 2 Oeste 0 -- -- 96
2020-06-11 03:00:00 13.5 0 Calma 3 Nordeste 0.2 -- -- 96
2020-06-11 02:00:00 13.6 0 Calma 3 Nordeste 0 -- -- 96
2020-06-11 01:00:00 13.6 0 Calma 3 Sur 0 -- -- 96
2020-06-11 00:00:00 13.7 2 Nordeste 5 Sudeste 0 -- -- 95
2020-06-10 23:00:00 13.9 0 Calma 7 Sudeste 0 -- -- 94
2020-06-10 22:00:00 14.9 2 Sudeste 6 Sudeste 0 -- -- 91
2020-06-10 21:00:00 15.8 2 Este 6 Noroeste 0 -- -- 89
2020-06-10 20:00:00 16.3 2 Este 6 Norte 0 -- -- 87
2020-06-10 19:00:00 17.2 0 Calma 6 Sudoeste 0 -- -- 80
2020-06-10 18:00:00 17 0 Calma 5 Norte 0 -- -- 82
2020-06-10 17:00:00 16.2 2 Oeste 8 Este 0 -- -- 85
2020-06-10 16:00:00 15.4 3 Noroeste 8 Sudoeste 0 -- -- 87
2020-06-10 15:00:00 14.4 2 Nordeste 5 Oeste 0 -- -- 92
2020-06-10 14:00:00 13.9 0 Calma 6 Norte 0.8 -- -- 95
2020-06-10 13:00:00 14 0 Calma 5 Este 0.8 -- -- 96
2020-06-10 12:00:00 13.9 3 Noroeste 6 Noroeste 1.6 -- -- 96
2020-06-10 11:00:00 13.8 0 Calma 3 Sur 1.2 -- -- 95
2020-06-10 10:00:00 13.9 0 Calma 3 Oeste 0 -- -- 95
2020-06-10 09:00:00 13.8 0 Calma 3 Este 0.2 -- -- 94
2020-06-10 08:00:00 13.2 0 Calma 4 Nordeste 1 -- -- 95
2020-06-10 07:00:00 12.9 0 Calma 5 Oeste 0 -- -- 96
2020-06-10 06:00:00 12.8 0 Calma 4 Sudoeste 0 -- -- 96
2020-06-10 05:00:00 12.8 0 Calma 2 Noroeste 0 -- -- 96
2020-06-10 04:00:00 13 0 Calma 3 Oeste 0 -- -- 95
2020-06-10 03:00:00 13.2 0 Calma 6 Noroeste 0 -- -- 95
2020-06-10 02:00:00 13.4 0 Calma 5 Sudoeste 0 -- -- 96
2020-06-10 01:00:00 13.1 0 Calma 3 Sur 0 -- -- 94
2020-06-10 00:00:00 13.8 0 Calma 6 Sur 0 -- -- 91
2020-06-09 23:00:00 14.7 0 Calma 6 Sudoeste 0.2 -- -- 90
2020-06-09 22:00:00 15.2 3 Noroeste 16 Noroeste 0 -- -- 85
2020-06-09 21:00:00 15.5 6 Oeste 23 Noroeste 0 -- -- 85
2020-06-09 20:00:00 16.1 9 Oeste 22 Oeste 0.8 -- -- 84
2020-06-09 19:00:00 17.5 9 Noroeste 22 Noroeste 0 -- -- 71
2020-06-09 18:00:00 18 7 Oeste 32 Oeste 0 -- -- 70
2020-06-09 17:00:00 19.6 13 Oeste 31 Oeste 0 -- -- 62
2020-06-09 16:00:00 19.3 7 Oeste 26 Noroeste 0 -- -- 64
2020-06-09 15:00:00 19.1 10 Oeste 23 Sudoeste 0 -- -- 62
2020-06-09 14:00:00 17.3 6 Noroeste 14 Norte 0 -- -- 70
2020-06-09 13:00:00 17 6 Oeste 22 Oeste 0 -- -- 72
2020-06-09 12:00:00 16.9 9 Oeste 21 Oeste 0.2 -- -- 71
2020-06-09 11:00:00 16 0 Calma 6 Nordeste 0 -- -- 78
2020-06-09 10:00:00 14.4 0 Calma 7 Sudoeste 0 -- -- 87
2020-06-09 09:00:00 14 4 Oeste 11 Oeste 0.4 -- -- 91
2020-06-09 08:00:00 12.4 0 Calma 3 Oeste 0 -- -- 98
2020-06-09 07:00:00 11.9 2 Norte 6 Noroeste 0 -- -- 97
2020-06-09 06:00:00 12.1 0 Calma 4 Este 0 -- -- 97
2020-06-09 05:00:00 12.2 0 Calma 3 Sudeste 0 -- -- 98
2020-06-09 04:00:00 12 0 Calma 2 Sudoeste 0 -- -- 98
2020-06-09 03:00:00 12 0 Calma 3 Sudeste 0 -- -- 97
2020-06-09 02:00:00 11.8 0 Calma 3 Sudeste 0 -- -- 97
2020-06-09 01:00:00 12.1 0 Calma 6 Este 0 -- -- 94
2020-06-09 00:00:00 13.4 4 Sudoeste 7 Sudoeste 1.8 -- -- 96
2020-06-08 23:00:00 13.7 0 Calma 10 Sudoeste 3.2 -- -- 96
2020-06-08 22:00:00 13.9 3 Oeste 8 Sudoeste 2.2 -- -- 95
2020-06-08 21:00:00 14.2 2 Sudeste 24 Oeste 10.6 -- -- 91
2020-06-08 20:00:00 16.1 4 Oeste 14 Noroeste 0 -- -- 80
2020-06-08 19:00:00 16.6 7 Oeste 22 Oeste 0 -- -- 78
2020-06-08 18:00:00 15.6 8 Oeste 27 Oeste 0 -- -- 85
2020-06-08 17:00:00 15.3 12 Oeste 26 Oeste 1.6 -- -- 86
2020-06-08 16:00:00 15.4 3 Sudoeste 17 Sudoeste 1.4 -- -- 93
2020-06-08 15:00:00 15.7 5 Sudoeste 13 Sudoeste 0.4 -- -- 92
2020-06-08 14:00:00 14 3 Sudoeste 8 Sudoeste 4.2 -- -- 96
2020-06-08 13:00:00 14.9 3 Oeste 7 Noroeste 2.2 -- -- 94
2020-06-08 12:00:00 14.2 3 Nordeste 6 Norte 0.4 -- -- 96
2020-06-08 11:00:00 13.3 0 Calma 4 Noroeste 0.2 -- -- 98
2020-06-08 10:00:00 12.9 0 Calma 4 Sudeste 0 -- -- 98
2020-06-08 09:00:00 12.1 0 Calma 4 Nordeste 0.4 -- -- 99
2020-06-08 08:00:00 11.6 2 Nordeste 9 Sur 5.4 -- -- 98
2020-06-08 07:00:00 11.5 0 Calma 5 Este 1.4 -- -- 98
2020-06-08 06:00:00 11.3 0 Calma 4 Oeste 0 -- -- 98
2020-06-08 05:00:00 11.7 0 Calma 4 Sur 1.4 -- -- 98
2020-06-08 04:00:00 11.5 0 Calma 4 Sur 0 -- -- 98
2020-06-08 03:00:00 11.8 0 Calma 8 Sudoeste 0.8 -- -- 98
2020-06-08 02:00:00 11.7 0 Calma 4 Noroeste 2.4 -- -- 97
2020-06-08 01:00:00 12 0 Calma 7 Sudoeste 7.8 -- -- 96
2020-06-08 00:00:00 12.1 0 Calma 3 Norte 0 -- -- 93
2020-06-07 23:00:00 12.3 2 Sudeste 6 Sudeste 0.8 -- -- 90
2020-06-07 22:00:00 13 3 Sudeste 12 Noroeste 0 -- -- 82
2020-06-07 21:00:00 15.1 5 Noroeste 14 Noroeste 0 -- -- 71
2020-06-07 20:00:00 15.5 8 Noroeste 22 Oeste 0 -- -- 66
2020-06-07 19:00:00 15.5 4 Sudoeste 14 Noroeste 0.4 -- -- 73
2020-06-07 18:00:00 16.6 6 Oeste 17 Oeste 0 -- -- 61
2020-06-07 17:00:00 16.5 5 Oeste 21 Oeste 0 -- -- 63
2020-06-07 16:00:00 17.2 5 Oeste 20 Oeste 0 -- -- 62
2020-06-07 15:00:00 17.3 6 Oeste 19 Oeste 0 -- -- 63
2020-06-07 14:00:00 16 6 Noroeste 14 Oeste 0 -- -- 72
2020-06-07 13:00:00 15.6 3 Oeste 6 Oeste 0 -- -- 82
2020-06-07 12:00:00 14.1 2 Sur 6 Sudeste 0 -- -- 88
2020-06-07 11:00:00 13.1 3 Sur 9 Noroeste 0.8 -- -- 92
2020-06-07 10:00:00 13.1 4 Noroeste 10 Noroeste 2.8 -- -- 95
2020-06-07 09:00:00 13 0 Calma 6 Sudoeste 2.4 -- -- 95
2020-06-07 08:00:00 13.1 4 Sudoeste 9 Sudoeste 0.6 -- -- 96
2020-06-07 07:00:00 13 0 Calma 7 Sudoeste 0.2 -- -- 96
2020-06-07 06:00:00 13 3 Oeste 5 Sudoeste 0.4 -- -- 95
2020-06-07 05:00:00 13.3 0 Calma 2 Nordeste 0.2 -- -- 94
2020-06-07 04:00:00 13.7 0 Calma 11 Oeste 0 -- -- 92
2020-06-07 03:00:00 14.4 3 Sur 12 Norte 0 -- -- 92
2020-06-07 02:00:00 15 0 Calma 6 Sur 0.4 -- -- 94
2020-06-07 01:00:00 15.2 3 Sur 6 Sudoeste 0.4 -- -- 95
2020-06-07 00:00:00 15.5 0 Calma 4 Oeste 0.4 -- -- 95
2020-06-06 23:00:00 15.7 0 Calma 4 Este 0 -- -- 94
2020-06-06 22:00:00 15.9 0 Calma 2 Sur 2 -- -- 94
2020-06-06 21:00:00 15.9 0 Calma 6 Nordeste 0.6 -- -- 93
2020-06-06 20:00:00 16.5 4 Oeste 10 Noroeste 0.6 -- -- 88
2020-06-06 19:00:00 17.4 3 Noroeste 17 Oeste 0 -- -- 82
2020-06-06 18:00:00 18 5 Oeste 15 Noroeste 0 -- -- 77
2020-06-06 17:00:00 18.5 5 Norte 12 Norte 0 -- -- 78
2020-06-06 16:00:00 19.1 4 Norte 13 Noroeste 0 -- -- 75
2020-06-06 15:00:00 20.3 5 Norte 21 Noroeste 0 -- -- 71
2020-06-06 14:00:00 21 6 Noroeste 15 Noroeste 0 -- -- 64
2020-06-06 13:00:00 20.5 4 Noroeste 18 Oeste 0 -- -- 67
2020-06-06 12:00:00 20.6 3 Sudoeste 10 Norte 0 -- -- 68
2020-06-06 11:00:00 18.9 6 Noroeste 13 Norte 0 -- -- 72
2020-06-06 10:00:00 17 2 Sudeste 4 Sudoeste 0 -- -- 86
2020-06-06 09:00:00 16.2 0 Calma 4 Noroeste 0 -- -- 91
2020-06-06 08:00:00 15.5 0 Calma 3 Sur 0 -- -- 94
2020-06-06 07:00:00 15.3 0 Calma 4 Noroeste 0 -- -- 93
2020-06-06 06:00:00 15.3 0 Calma 2 Sur 0 -- -- 93
2020-06-06 05:00:00 15.4 0 Calma 2 Sudeste 0 -- -- 92
2020-06-06 04:00:00 15.6 0 Calma 5 Sudeste 0 -- -- 91
2020-06-06 03:00:00 15.7 0 Calma 7 Noroeste 0 -- -- 90
2020-06-06 02:00:00 15.8 0 Calma 5 Norte 0 -- -- 90
2020-06-06 01:00:00 16 0 Calma 4 Noroeste 0 -- -- 88
2020-06-06 00:00:00 16.1 2 Sudeste 5 Sudeste 0 -- -- 87
2020-06-05 23:00:00 16.4 0 Calma 9 Noroeste 0 -- -- 86
2020-06-05 22:00:00 16.8 0 Calma 10 Sudoeste 0 -- -- 82
2020-06-05 21:00:00 17.5 3 Oeste 7 Oeste 0 -- -- 78
2020-06-05 20:00:00 17.8 3 Oeste 12 Oeste 0 -- -- 75
2020-06-05 19:00:00 18.3 4 Oeste 15 Noroeste 0 -- -- 71
2020-06-05 18:00:00 18.5 4 Noroeste 22 Norte 0 -- -- 71
2020-06-05 17:00:00 18.9 8 Oeste 22 Oeste 0 -- -- 69
2020-06-05 16:00:00 18.9 10 Noroeste 22 Noroeste 0 -- -- 70
2020-06-05 15:00:00 18.8 6 Noroeste 17 Oeste 0 -- -- 64
2020-06-05 14:00:00 19 8 Oeste 25 Noroeste 0 -- -- 64
2020-06-05 13:00:00 17.9 9 Noroeste 19 Sudoeste 0 -- -- 70
2020-06-05 12:00:00 17 9 Oeste 20 Sudoeste 0 -- -- 73
2020-06-05 11:00:00 15 3 Oeste 9 Sudoeste 0 -- -- 84
2020-06-05 10:00:00 14 0 Calma 8 Sudoeste 0 -- -- 89
2020-06-05 09:00:00 14 2 Norte 9 Sudoeste 0 -- -- 86
2020-06-05 08:00:00 14.2 2 Noroeste 21 Oeste 0 -- -- 83
2020-06-05 07:00:00 13.9 0 Calma 31 Sudoeste 0 -- -- 81
2020-06-05 06:00:00 14.5 5 Oeste 19 Noroeste 0 -- -- 82
2020-06-05 05:00:00 14.8 6 Noroeste 21 Noroeste 0.2 -- -- 77
2020-06-05 04:00:00 14.1 6 Noroeste 19 Noroeste 0 -- -- 85
2020-06-05 03:00:00 14.3 4 Sudoeste 21 Oeste 0.4 -- -- 89
2020-06-05 02:00:00 14.5 2 Norte 22 Noroeste 0.2 -- -- 92
2020-06-05 01:00:00 15.5 7 Noroeste 16 Noroeste 1 -- -- 84
2020-06-05 00:00:00 15.8 3 Norte 20 Noroeste 0 -- -- 85
2020-06-04 23:00:00 15.8 6 Noroeste 28 Norte 0 -- -- 86
2020-06-04 22:00:00 15 5 Oeste 17 Oeste 0.6 -- -- 94
2020-06-04 21:00:00 14.8 4 Oeste 21 Oeste 7 -- -- 92
2020-06-04 20:00:00 15.3 5 Oeste 21 Oeste 4.4 -- -- 91
2020-06-04 19:00:00 15.7 0 Calma 12 Oeste 2 -- -- 89
2020-06-04 18:00:00 15.8 6 Oeste 25 Oeste 0.6 -- -- 88
2020-06-04 17:00:00 16.9 6 Oeste 25 Noroeste 0.2 -- -- 86
2020-06-04 16:00:00 16.3 10 Oeste 24 Oeste 4.6 -- -- 90
2020-06-04 15:00:00 15.5 6 Oeste 22 Sudoeste 8 -- -- 91
2020-06-04 14:00:00 15 9 Oeste 23 Oeste 3.6 -- -- 89
2020-06-04 13:00:00 15.1 4 Oeste 21 Sudoeste 4.6 -- -- 89
2020-06-04 12:00:00 15.8 4 Sudoeste 22 Oeste 1.8 -- -- 89
2020-06-04 11:00:00 15.2 6 Noroeste 15 Oeste 1.4 -- -- 89
2020-06-04 10:00:00 14.4 2 Sudeste 13 Sudoeste 1 -- -- 94
2020-06-04 09:00:00 14.4 5 Noroeste 13 Norte 1.8 -- -- 92
2020-06-04 08:00:00 14.2 2 Nordeste 9 Sudoeste 0.2 -- -- 94
2020-06-04 07:00:00 14.3 2 Este 7 Sudeste 1.8 -- -- 95
2020-06-04 06:00:00 14.5 0 Calma 8 Sudeste 2.6 -- -- 95
2020-06-04 05:00:00 14.8 0 Calma 6 Norte 0.8 -- -- 93
2020-06-04 04:00:00 15.8 2 Oeste 6 Noroeste 0.6 -- -- 92
2020-06-04 03:00:00 16.1 2 Sudeste 10 Oeste 0 -- -- 87
2020-06-04 02:00:00 16.6 4 Oeste 11 Oeste 0 -- -- 86
2020-06-04 01:00:00 16.7 0 Calma 8 Sudoeste 0.2 -- -- 89
2020-06-04 00:00:00 17.6 0 Calma 16 Noroeste 0 -- -- 83
2020-06-03 23:00:00 18.4 8 Noroeste 20 Oeste 0 -- -- 81
2020-06-03 22:00:00 18.5 2 Norte 7 Noroeste 0 -- -- 85
2020-06-03 21:00:00 19.8 6 Oeste 16 Oeste 0 -- -- 76
2020-06-03 20:00:00 19.8 3 Norte 9 Noroeste 0 -- -- 80
2020-06-03 19:00:00 19.7 2 Oeste 6 Noroeste 0 -- -- 80
2020-06-03 18:00:00 20 2 Sudoeste 14 Oeste 0 -- -- 79
2020-06-03 17:00:00 21.4 2 Oeste 19 Noroeste 0 -- -- 69
2020-06-03 16:00:00 20.8 3 Noroeste 11 Norte 0 -- -- 76
2020-06-03 15:00:00 21.1 3 Nordeste 13 Noroeste 0 -- -- 79
2020-06-03 14:00:00 20.9 6 Oeste 10 Oeste 0 -- -- 84
2020-06-03 13:00:00 20.2 2 Sudoeste 6 Nordeste 0 -- -- 89
2020-06-03 12:00:00 19.2 2 Nordeste 11 Sur 9.4 -- -- 87
2020-06-03 11:00:00 21.8 4 Norte 9 Sudoeste 0 -- -- 80
2020-06-03 10:00:00 21.5 3 Sudoeste 7 Sudoeste 0 -- -- 84
2020-06-03 09:00:00 20.3 0 Calma 3 Nordeste 0 -- -- 89
2020-06-03 08:00:00 19.3 0 Calma 3 Nordeste 0 -- -- 92
2020-06-03 07:00:00 18.8 0 Calma 5 Sudeste 0 -- -- 93
2020-06-03 06:00:00 18.9 0 Calma 2 Nordeste 0 -- -- 93
2020-06-03 05:00:00 18.8 0 Calma -- -- 0 -- -- 93
2020-06-03 04:00:00 18.7 0 Calma 4 Este 0 -- -- 91
2020-06-03 03:00:00 19.5 0 Calma 3 Sudeste 0 -- -- 90
2020-06-03 02:00:00 20 3 Sur 5 Sur 0 -- -- 88
2020-06-03 01:00:00 20.8 0 Calma 5 Norte 0 -- -- 86
2020-06-03 00:00:00 21.4 0 Calma 6 Norte 0 -- -- 84